sensor_id;sensor_type;location;lat;lon;timestamp;temperature;humidity
53534;DHT22;39421;53.204;6.568;2022-09-12T00:02:23;19.00;99.90
53534;DHT22;39421;53.204;6.568;2022-09-12T00:04:49;19.00;99.90
53534;DHT22;39421;53.204;6.568;2022-09-12T00:07:14;19.00;99.90
53534;DHT22;39421;53.204;6.568;2022-09-12T00:09:40;19.00;99.90
53534;DHT22;39421;53.204;6.568;2022-09-12T00:12:07;19.00;99.90
53534;DHT22;39421;53.204;6.568;2022-09-12T00:14:32;19.00;99.90
53534;DHT22;39421;53.204;6.568;2022-09-12T00:16:59;19.00;99.90
53534;DHT22;39421;53.204;6.568;2022-09-12T00:19:28;19.00;99.90
53534;DHT22;39421;53.204;6.568;2022-09-12T00:21:54;19.00;99.90
53534;DHT22;39421;53.204;6.568;2022-09-12T00:24:20;19.00;99.90
53534;DHT22;39421;53.204;6.568;2022-09-12T00:26:46;19.00;99.90
53534;DHT22;39421;53.204;6.568;2022-09-12T00:29:17;19.00;99.90
53534;DHT22;39421;53.204;6.568;2022-09-12T00:31:43;19.00;99.90
53534;DHT22;39421;53.204;6.568;2022-09-12T00:34:09;18.90;99.90
53534;DHT22;39421;53.204;6.568;2022-09-12T00:36:35;18.90;99.90
53534;DHT22;39421;53.204;6.568;2022-09-12T00:39:01;18.90;99.90
53534;DHT22;39421;53.204;6.568;2022-09-12T00:41:32;18.90;99.90
53534;DHT22;39421;53.204;6.568;2022-09-12T00:44:47;18.90;99.90
53534;DHT22;39421;53.204;6.568;2022-09-12T00:46:51;18.80;99.90
53534;DHT22;39421;53.204;6.568;2022-09-12T00:52:02;18.80;99.90
53534;DHT22;39421;53.204;6.568;2022-09-12T00:54:33;18.80;99.90
53534;DHT22;39421;53.204;6.568;2022-09-12T00:57:04;18.80;99.90
53534;DHT22;39421;53.204;6.568;2022-09-12T00:59:39;18.80;99.90
53534;DHT22;39421;53.204;6.568;2022-09-12T01:02:06;18.80;99.90
53534;DHT22;39421;53.204;6.568;2022-09-12T01:04:34;18.70;99.90
53534;DHT22;39421;53.204;6.568;2022-09-12T01:07:03;18.80;99.90
53534;DHT22;39421;53.204;6.568;2022-09-12T01:09:29;18.80;99.90
53534;DHT22;39421;53.204;6.568;2022-09-12T01:11:56;18.70;99.90
53534;DHT22;39421;53.204;6.568;2022-09-12T01:14:22;18.70;99.90
53534;DHT22;39421;53.204;6.568;2022-09-12T01:16:49;18.80;99.90
53534;DHT22;39421;53.204;6.568;2022-09-12T01:22:43;18.70;99.90
53534;DHT22;39421;53.204;6.568;2022-09-12T01:39:19;18.40;99.90
53534;DHT22;39421;53.204;6.568;2022-09-12T01:45:10;18.20;99.90
53534;DHT22;39421;53.204;6.568;2022-09-12T01:47:48;18.20;99.90
53534;DHT22;39421;53.204;6.568;2022-09-12T01:50:45;18.20;99.90
53534;DHT22;39421;53.204;6.568;2022-09-12T01:53:29;18.20;99.90
53534;DHT22;39421;53.204;6.568;2022-09-12T01:56:20;18.20;99.90
53534;DHT22;39421;53.204;6.568;2022-09-12T01:58:55;18.10;99.90
53534;DHT22;39421;53.204;6.568;2022-09-12T02:01:26;18.10;99.90
53534;DHT22;39421;53.204;6.568;2022-09-12T02:04:04;18.00;99.90
53534;DHT22;39421;53.204;6.568;2022-09-12T02:06:45;17.80;99.90
53534;DHT22;39421;53.204;6.568;2022-09-12T02:09:30;17.70;99.90
53534;DHT22;39421;53.204;6.568;2022-09-12T02:12:00;17.60;99.90
53534;DHT22;39421;53.204;6.568;2022-09-12T02:14:29;17.50;99.90
53534;DHT22;39421;53.204;6.568;2022-09-12T02:17:02;17.40;99.90
53534;DHT22;39421;53.204;6.568;2022-09-12T02:19:36;17.40;99.90
53534;DHT22;39421;53.204;6.568;2022-09-12T02:22:04;17.30;99.90
53534;DHT22;39421;53.204;6.568;2022-09-12T02:24:35;17.30;99.90
53534;DHT22;39421;53.204;6.568;2022-09-12T02:29:47;17.50;99.90
53534;DHT22;39421;53.204;6.568;2022-09-12T02:35:06;17.60;99.90
53534;DHT22;39421;53.204;6.568;2022-09-12T02:40:08;17.50;99.90
53534;DHT22;39421;53.204;6.568;2022-09-12T02:42:35;17.50;99.90
53534;DHT22;39421;53.204;6.568;2022-09-12T02:45:01;17.40;99.90
53534;DHT22;39421;53.204;6.568;2022-09-12T02:47:38;17.20;99.90
53534;DHT22;39421;53.204;6.568;2022-09-12T02:50:06;17.10;99.90
53534;DHT22;39421;53.204;6.568;2022-09-12T02:52:33;17.00;99.90
53534;DHT22;39421;53.204;6.568;2022-09-12T02:55:01;16.90;99.90
53534;DHT22;39421;53.204;6.568;2022-09-12T02:57:27;17.00;99.90
53534;DHT22;39421;53.204;6.568;2022-09-12T02:59:57;17.10;99.90
53534;DHT22;39421;53.204;6.568;2022-09-12T03:11:24;16.90;99.90
53534;DHT22;39421;53.204;6.568;2022-09-12T03:14:09;16.80;99.90
53534;DHT22;39421;53.204;6.568;2022-09-12T03:17:13;16.70;99.90
53534;DHT22;39421;53.204;6.568;2022-09-12T03:19:59;16.60;99.90
53534;DHT22;39421;53.204;6.568;2022-09-12T03:22:51;16.60;99.90
53534;DHT22;39421;53.204;6.568;2022-09-12T03:26:09;16.50;99.90
53534;DHT22;39421;53.204;6.568;2022-09-12T03:28:16;16.50;99.90
53534;DHT22;39421;53.204;6.568;2022-09-12T03:30:45;16.50;99.90
53534;DHT22;39421;53.204;6.568;2022-09-12T03:33:13;16.50;99.90
53534;DHT22;39421;53.204;6.568;2022-09-12T03:35:39;16.40;99.90
53534;DHT22;39421;53.204;6.568;2022-09-12T03:38:04;16.40;99.90
53534;DHT22;39421;53.204;6.568;2022-09-12T03:40:33;16.40;99.90
53534;DHT22;39421;53.204;6.568;2022-09-12T03:42:59;16.30;99.90
53534;DHT22;39421;53.204;6.568;2022-09-12T03:45:24;16.30;99.90
53534;DHT22;39421;53.204;6.568;2022-09-12T03:47:50;16.40;99.90
53534;DHT22;39421;53.204;6.568;2022-09-12T03:50:16;16.40;99.90
53534;DHT22;39421;53.204;6.568;2022-09-12T03:52:42;16.40;99.90
53534;DHT22;39421;53.204;6.568;2022-09-12T03:55:08;16.50;99.90
53534;DHT22;39421;53.204;6.568;2022-09-12T03:57:34;16.50;99.90
53534;DHT22;39421;53.204;6.568;2022-09-12T03:59:59;16.40;99.90
53534;DHT22;39421;53.204;6.568;2022-09-12T04:02:27;16.40;99.90
53534;DHT22;39421;53.204;6.568;2022-09-12T04:04:53;16.40;99.90
53534;DHT22;39421;53.204;6.568;2022-09-12T04:07:19;16.40;99.90
53534;DHT22;39421;53.204;6.568;2022-09-12T04:09:45;16.30;99.90
53534;DHT22;39421;53.204;6.568;2022-09-12T04:12:10;16.40;99.90
53534;DHT22;39421;53.204;6.568;2022-09-12T04:14:37;16.50;99.90
53534;DHT22;39421;53.204;6.568;2022-09-12T04:17:03;16.50;99.90
53534;DHT22;39421;53.204;6.568;2022-09-12T04:19:29;16.50;99.90
53534;DHT22;39421;53.204;6.568;2022-09-12T04:21:54;16.50;99.90
53534;DHT22;39421;53.204;6.568;2022-09-12T04:24:20;16.50;99.90
53534;DHT22;39421;53.204;6.568;2022-09-12T04:26:46;16.40;99.90
53534;DHT22;39421;53.204;6.568;2022-09-12T04:29:12;16.30;99.90
53534;DHT22;39421;53.204;6.568;2022-09-12T04:31:39;16.30;99.90
53534;DHT22;39421;53.204;6.568;2022-09-12T04:34:05;16.30;99.90
53534;DHT22;39421;53.204;6.568;2022-09-12T04:36:31;16.20;99.90
53534;DHT22;39421;53.204;6.568;2022-09-12T04:38:59;16.20;99.90
53534;DHT22;39421;53.204;6.568;2022-09-12T04:41:31;16.30;99.90
53534;DHT22;39421;53.204;6.568;2022-09-12T04:43:59;16.20;99.90
53534;DHT22;39421;53.204;6.568;2022-09-12T04:46:36;16.30;99.90
53534;DHT22;39421;53.204;6.568;2022-09-12T04:49:06;16.30;99.90
53534;DHT22;39421;53.204;6.568;2022-09-12T04:51:34;16.30;99.90
53534;DHT22;39421;53.204;6.568;2022-09-12T04:54:06;16.30;99.90
53534;DHT22;39421;53.204;6.568;2022-09-12T04:56:32;16.30;99.90
53534;DHT22;39421;53.204;6.568;2022-09-12T04:58:59;16.30;99.90
53534;DHT22;39421;53.204;6.568;2022-09-12T05:01:27;16.30;99.90
53534;DHT22;39421;53.204;6.568;2022-09-12T05:03:54;16.30;99.90
53534;DHT22;39421;53.204;6.568;2022-09-12T05:06:32;16.20;99.90
53534;DHT22;39421;53.204;6.568;2022-09-12T05:08:59;16.20;99.90
53534;DHT22;39421;53.204;6.568;2022-09-12T05:11:37;16.20;99.90
53534;DHT22;39421;53.204;6.568;2022-09-12T05:14:03;16.20;99.90
53534;DHT22;39421;53.204;6.568;2022-09-12T05:16:29;16.20;99.90
53534;DHT22;39421;53.204;6.568;2022-09-12T05:18:57;16.20;99.90
53534;DHT22;39421;53.204;6.568;2022-09-12T05:21:24;16.30;99.90
53534;DHT22;39421;53.204;6.568;2022-09-12T05:23:54;16.30;99.90
53534;DHT22;39421;53.204;6.568;2022-09-12T05:26:21;16.30;99.90
53534;DHT22;39421;53.204;6.568;2022-09-12T05:28:49;16.30;99.90
53534;DHT22;39421;53.204;6.568;2022-09-12T05:31:25;16.30;99.90
53534;DHT22;39421;53.204;6.568;2022-09-12T05:33:52;16.30;99.90
53534;DHT22;39421;53.204;6.568;2022-09-12T05:36:21;16.30;99.90
53534;DHT22;39421;53.204;6.568;2022-09-12T05:38:48;16.40;99.90
53534;DHT22;39421;53.204;6.568;2022-09-12T05:41:26;16.50;99.90
53534;DHT22;39421;53.204;6.568;2022-09-12T05:43:54;16.50;99.90
53534;DHT22;39421;53.204;6.568;2022-09-12T05:46:21;16.50;99.90
53534;DHT22;39421;53.204;6.568;2022-09-12T05:48:48;16.40;99.90
53534;DHT22;39421;53.204;6.568;2022-09-12T05:51:20;16.50;99.90
53534;DHT22;39421;53.204;6.568;2022-09-12T05:53:48;16.40;99.90
53534;DHT22;39421;53.204;6.568;2022-09-12T05:56:16;16.50;99.90
53534;DHT22;39421;53.204;6.568;2022-09-12T05:58:44;16.50;99.90
53534;DHT22;39421;53.204;6.568;2022-09-12T06:01:14;16.40;99.90
53534;DHT22;39421;53.204;6.568;2022-09-12T06:03:42;16.40;99.90
53534;DHT22;39421;53.204;6.568;2022-09-12T06:06:09;16.50;99.90
53534;DHT22;39421;53.204;6.568;2022-09-12T06:08:39;16.50;99.90
53534;DHT22;39421;53.204;6.568;2022-09-12T06:11:06;16.50;99.90
53534;DHT22;39421;53.204;6.568;2022-09-12T06:13:34;16.60;99.90
53534;DHT22;39421;53.204;6.568;2022-09-12T06:16:14;16.50;99.90
53534;DHT22;39421;53.204;6.568;2022-09-12T06:18:45;16.60;99.90
53534;DHT22;39421;53.204;6.568;2022-09-12T06:21:12;16.60;99.90
53534;DHT22;39421;53.204;6.568;2022-09-12T06:23:38;16.60;99.90
53534;DHT22;39421;53.204;6.568;2022-09-12T06:26:06;16.70;99.90
53534;DHT22;39421;53.204;6.568;2022-09-12T06:28:35;16.70;99.90
53534;DHT22;39421;53.204;6.568;2022-09-12T06:31:06;16.70;99.90
53534;DHT22;39421;53.204;6.568;2022-09-12T06:33:33;16.60;99.90
53534;DHT22;39421;53.204;6.568;2022-09-12T06:36:29;16.70;99.90
53534;DHT22;39421;53.204;6.568;2022-09-12T06:39:01;16.60;99.90
53534;DHT22;39421;53.204;6.568;2022-09-12T06:41:28;16.70;99.90
53534;DHT22;39421;53.204;6.568;2022-09-12T06:43:54;16.70;99.90
53534;DHT22;39421;53.204;6.568;2022-09-12T06:46:20;16.70;99.90
53534;DHT22;39421;53.204;6.568;2022-09-12T06:48:46;16.70;99.90
53534;DHT22;39421;53.204;6.568;2022-09-12T06:51:15;16.70;99.90
53534;DHT22;39421;53.204;6.568;2022-09-12T06:53:41;16.70;99.90
53534;DHT22;39421;53.204;6.568;2022-09-12T06:56:17;16.70;99.90
53534;DHT22;39421;53.204;6.568;2022-09-12T06:58:47;16.70;99.90
53534;DHT22;39421;53.204;6.568;2022-09-12T07:01:15;16.70;99.90
53534;DHT22;39421;53.204;6.568;2022-09-12T07:03:42;16.60;99.90
53534;DHT22;39421;53.204;6.568;2022-09-12T07:06:13;16.60;99.90
53534;DHT22;39421;53.204;6.568;2022-09-12T07:08:39;16.60;99.90
53534;DHT22;39421;53.204;6.568;2022-09-12T07:11:11;16.60;99.90
53534;DHT22;39421;53.204;6.568;2022-09-12T07:13:42;16.70;99.90
53534;DHT22;39421;53.204;6.568;2022-09-12T07:16:08;16.80;99.90
53534;DHT22;39421;53.204;6.568;2022-09-12T07:18:35;16.80;99.90
53534;DHT22;39421;53.204;6.568;2022-09-12T07:21:04;16.80;99.90
53534;DHT22;39421;53.204;6.568;2022-09-12T07:23:30;16.80;99.90
53534;DHT22;39421;53.204;6.568;2022-09-12T07:25:58;16.80;99.90
53534;DHT22;39421;53.204;6.568;2022-09-12T07:28:26;16.80;99.90
53534;DHT22;39421;53.204;6.568;2022-09-12T07:30:52;16.90;99.90
53534;DHT22;39421;53.204;6.568;2022-09-12T07:33:23;17.00;99.90
53534;DHT22;39421;53.204;6.568;2022-09-12T07:35:50;17.00;99.90
53534;DHT22;39421;53.204;6.568;2022-09-12T07:38:19;17.00;99.90
53534;DHT22;39421;53.204;6.568;2022-09-12T07:40:44;17.10;99.90
53534;DHT22;39421;53.204;6.568;2022-09-12T07:43:11;17.20;99.90
53534;DHT22;39421;53.204;6.568;2022-09-12T07:45:36;17.20;99.90
53534;DHT22;39421;53.204;6.568;2022-09-12T07:48:02;17.30;99.90
53534;DHT22;39421;53.204;6.568;2022-09-12T07:50:28;17.30;99.90
53534;DHT22;39421;53.204;6.568;2022-09-12T07:52:54;17.30;99.90
53534;DHT22;39421;53.204;6.568;2022-09-12T07:55:21;17.30;99.90
53534;DHT22;39421;53.204;6.568;2022-09-12T07:57:50;17.40;99.90
53534;DHT22;39421;53.204;6.568;2022-09-12T08:00:17;17.40;99.90
53534;DHT22;39421;53.204;6.568;2022-09-12T08:02:43;17.40;99.90
53534;DHT22;39421;53.204;6.568;2022-09-12T08:05:09;17.50;99.90
53534;DHT22;39421;53.204;6.568;2022-09-12T08:07:35;17.50;99.90
53534;DHT22;39421;53.204;6.568;2022-09-12T08:10:01;17.50;99.90
53534;DHT22;39421;53.204;6.568;2022-09-12T08:12:27;17.50;99.90
53534;DHT22;39421;53.204;6.568;2022-09-12T08:14:53;17.50;99.90
53534;DHT22;39421;53.204;6.568;2022-09-12T08:17:19;17.60;99.90
53534;DHT22;39421;53.204;6.568;2022-09-12T08:19:44;17.70;99.90
53534;DHT22;39421;53.204;6.568;2022-09-12T08:22:10;17.70;99.90
53534;DHT22;39421;53.204;6.568;2022-09-12T08:24:37;17.70;99.90
53534;DHT22;39421;53.204;6.568;2022-09-12T08:27:06;17.80;99.90
53534;DHT22;39421;53.204;6.568;2022-09-12T08:29:32;17.80;99.90
53534;DHT22;39421;53.204;6.568;2022-09-12T08:31:58;17.80;99.90
53534;DHT22;39421;53.204;6.568;2022-09-12T08:34:23;17.90;99.90
53534;DHT22;39421;53.204;6.568;2022-09-12T08:36:51;18.00;99.90
53534;DHT22;39421;53.204;6.568;2022-09-12T08:39:19;18.00;99.90
53534;DHT22;39421;53.204;6.568;2022-09-12T08:41:47;18.10;99.90
53534;DHT22;39421;53.204;6.568;2022-09-12T08:58:15;18.50;99.90
53534;DHT22;39421;53.204;6.568;2022-09-12T09:01:08;18.60;99.90
53534;DHT22;39421;53.204;6.568;2022-09-12T09:14:30;18.60;99.90
53534;DHT22;39421;53.204;6.568;2022-09-12T09:19:50;18.80;99.90
53534;DHT22;39421;53.204;6.568;2022-09-12T09:22:33;18.90;99.90
53534;DHT22;39421;53.204;6.568;2022-09-12T09:25:06;19.10;99.90
53534;DHT22;39421;53.204;6.568;2022-09-12T09:27:34;19.30;99.90
53534;DHT22;39421;53.204;6.568;2022-09-12T09:30:02;19.40;99.90
53534;DHT22;39421;53.204;6.568;2022-09-12T09:32:35;19.40;99.90
53534;DHT22;39421;53.204;6.568;2022-09-12T09:35:15;19.50;99.90
53534;DHT22;39421;53.204;6.568;2022-09-12T09:38:04;19.60;99.90
53534;DHT22;39421;53.204;6.568;2022-09-12T09:43:32;20.00;99.90
53534;DHT22;39421;53.204;6.568;2022-09-12T09:45:58;20.20;99.90
53534;DHT22;39421;53.204;6.568;2022-09-12T09:48:34;20.30;99.90
53534;DHT22;39421;53.204;6.568;2022-09-12T09:51:05;20.40;99.90
53534;DHT22;39421;53.204;6.568;2022-09-12T09:53:58;20.70;99.90
53534;DHT22;39421;53.204;6.568;2022-09-12T09:56:33;21.10;99.90
53534;DHT22;39421;53.204;6.568;2022-09-12T09:59:26;21.50;99.90
53534;DHT22;39421;53.204;6.568;2022-09-12T10:01:54;22.00;99.90
53534;DHT22;39421;53.204;6.568;2022-09-12T10:04:25;22.70;99.90
53534;DHT22;39421;53.204;6.568;2022-09-12T10:06:53;23.60;99.90
53534;DHT22;39421;53.204;6.568;2022-09-12T10:09:23;24.10;99.90
53534;DHT22;39421;53.204;6.568;2022-09-12T10:11:51;23.80;99.90
53534;DHT22;39421;53.204;6.568;2022-09-12T10:16:53;22.80;99.90
53534;DHT22;39421;53.204;6.568;2022-09-12T10:19:32;22.60;99.90
53534;DHT22;39421;53.204;6.568;2022-09-12T10:21:58;22.70;99.90
53534;DHT22;39421;53.204;6.568;2022-09-12T10:24:35;22.60;99.90
53534;DHT22;39421;53.204;6.568;2022-09-12T10:27:13;22.40;99.90
53534;DHT22;39421;53.204;6.568;2022-09-12T10:29:46;22.40;99.90
53534;DHT22;39421;53.204;6.568;2022-09-12T10:32:33;22.30;99.90
53534;DHT22;39421;53.204;6.568;2022-09-12T10:35:06;22.30;99.90
53534;DHT22;39421;53.204;6.568;2022-09-12T10:37:36;22.30;99.90
53534;DHT22;39421;53.204;6.568;2022-09-12T10:40:05;22.30;99.90
53534;DHT22;39421;53.204;6.568;2022-09-12T10:42:54;22.30;99.90
53534;DHT22;39421;53.204;6.568;2022-09-12T10:45:34;22.40;99.90
53534;DHT22;39421;53.204;6.568;2022-09-12T10:50:49;22.60;99.90
53534;DHT22;39421;53.204;6.568;2022-09-12T11:02:13;22.90;99.90
53534;DHT22;39421;53.204;6.568;2022-09-12T11:07:45;23.00;99.90
53534;DHT22;39421;53.204;6.568;2022-09-12T11:18:55;23.00;99.90
53534;DHT22;39421;53.204;6.568;2022-09-12T11:21:33;22.90;99.90
53534;DHT22;39421;53.204;6.568;2022-09-12T11:37:48;23.40;99.90
53534;DHT22;39421;53.204;6.568;2022-09-12T11:42:49;23.40;99.90
53534;DHT22;39421;53.204;6.568;2022-09-12T11:45:40;23.50;99.90
53534;DHT22;39421;53.204;6.568;2022-09-12T11:48:10;23.40;99.90
53534;DHT22;39421;53.204;6.568;2022-09-12T11:50:38;23.30;99.90
53534;DHT22;39421;53.204;6.568;2022-09-12T11:53:24;23.40;99.90
53534;DHT22;39421;53.204;6.568;2022-09-12T11:55:55;23.50;99.90
53534;DHT22;39421;53.204;6.568;2022-09-12T11:58:25;23.60;99.90
53534;DHT22;39421;53.204;6.568;2022-09-12T12:00:57;23.60;99.90
53534;DHT22;39421;53.204;6.568;2022-09-12T12:03:39;23.80;99.90
53534;DHT22;39421;53.204;6.568;2022-09-12T12:06:06;23.90;99.90
53534;DHT22;39421;53.204;6.568;2022-09-12T12:08:40;23.90;99.90
53534;DHT22;39421;53.204;6.568;2022-09-12T12:11:08;23.80;99.90
53534;DHT22;39421;53.204;6.568;2022-09-12T12:13:35;23.70;99.90
53534;DHT22;39421;53.204;6.568;2022-09-12T12:18:44;23.60;99.90
53534;DHT22;39421;53.204;6.568;2022-09-12T12:21:34;23.60;99.90
53534;DHT22;39421;53.204;6.568;2022-09-12T12:47:51;24.20;99.90
53534;DHT22;39421;53.204;6.568;2022-09-12T12:52:47;24.20;99.90
53534;DHT22;39421;53.204;6.568;2022-09-12T12:55:29;24.30;99.40
53534;DHT22;39421;53.204;6.568;2022-09-12T12:58:03;24.20;98.50
53534;DHT22;39421;53.204;6.568;2022-09-12T13:00:37;24.10;98.10
53534;DHT22;39421;53.204;6.568;2022-09-12T13:11:06;24.20;97.80
53534;DHT22;39421;53.204;6.568;2022-09-12T13:17:06;24.30;98.00
53534;DHT22;39421;53.204;6.568;2022-09-12T13:19:35;24.20;98.30
53534;DHT22;39421;53.204;6.568;2022-09-12T13:22:09;24.10;98.80
53534;DHT22;39421;53.204;6.568;2022-09-12T13:24:47;24.10;98.80
53534;DHT22;39421;53.204;6.568;2022-09-12T13:27:22;24.20;99.50
53534;DHT22;39421;53.204;6.568;2022-09-12T13:29:49;24.20;99.40
53534;DHT22;39421;53.204;6.568;2022-09-12T13:32:15;24.20;99.00
53534;DHT22;39421;53.204;6.568;2022-09-12T13:34:49;24.20;99.00
53534;DHT22;39421;53.204;6.568;2022-09-12T13:42:45;24.00;99.10
53534;DHT22;39421;53.204;6.568;2022-09-12T13:45:14;24.00;99.10
53534;DHT22;39421;53.204;6.568;2022-09-12T13:47:45;24.10;99.20
53534;DHT22;39421;53.204;6.568;2022-09-12T13:50:26;24.20;98.70
53534;DHT22;39421;53.204;6.568;2022-09-12T13:52:56;24.20;99.00
53534;DHT22;39421;53.204;6.568;2022-09-12T13:55:32;24.20;98.70
53534;DHT22;39421;53.204;6.568;2022-09-12T14:01:06;24.10;98.60
53534;DHT22;39421;53.204;6.568;2022-09-12T14:03:49;24.10;98.70
53534;DHT22;39421;53.204;6.568;2022-09-12T14:06:51;24.20;99.00
53534;DHT22;39421;53.204;6.568;2022-09-12T14:09:21;24.10;99.30
53534;DHT22;39421;53.204;6.568;2022-09-12T14:11:48;24.00;99.20
53534;DHT22;39421;53.204;6.568;2022-09-12T14:14:35;24.00;98.70
53534;DHT22;39421;53.204;6.568;2022-09-12T14:17:31;24.00;98.80
53534;DHT22;39421;53.204;6.568;2022-09-12T14:20:00;23.90;98.80
53534;DHT22;39421;53.204;6.568;2022-09-12T14:22:28;23.90;98.90
53534;DHT22;39421;53.204;6.568;2022-09-12T14:24:55;24.00;98.70
53534;DHT22;39421;53.204;6.568;2022-09-12T14:27:27;24.00;98.50
53534;DHT22;39421;53.204;6.568;2022-09-12T14:30:17;23.90;98.50
53534;DHT22;39421;53.204;6.568;2022-09-12T14:36:11;23.80;98.60
53534;DHT22;39421;53.204;6.568;2022-09-12T14:38:43;23.90;98.60
53534;DHT22;39421;53.204;6.568;2022-09-12T14:41:10;23.90;98.70
53534;DHT22;39421;53.204;6.568;2022-09-12T14:43:41;23.90;98.70
53534;DHT22;39421;53.204;6.568;2022-09-12T14:46:33;23.90;98.50
53534;DHT22;39421;53.204;6.568;2022-09-12T14:49:09;23.80;98.60
53534;DHT22;39421;53.204;6.568;2022-09-12T14:51:44;23.80;98.70
53534;DHT22;39421;53.204;6.568;2022-09-12T14:57:35;23.80;99.00
53534;DHT22;39421;53.204;6.568;2022-09-12T15:02:41;23.80;99.40
53534;DHT22;39421;53.204;6.568;2022-09-12T15:07:35;23.80;99.60
53534;DHT22;39421;53.204;6.568;2022-09-12T15:12:29;23.90;99.90
53534;DHT22;39421;53.204;6.568;2022-09-12T15:15:18;23.80;99.80
53534;DHT22;39421;53.204;6.568;2022-09-12T15:17:44;23.80;99.90
53534;DHT22;39421;53.204;6.568;2022-09-12T15:20:11;23.80;99.90
53534;DHT22;39421;53.204;6.568;2022-09-12T15:22:38;23.80;99.90
53534;DHT22;39421;53.204;6.568;2022-09-12T15:25:05;23.80;99.90
53534;DHT22;39421;53.204;6.568;2022-09-12T15:27:31;23.80;99.90
53534;DHT22;39421;53.204;6.568;2022-09-12T15:29:57;23.90;99.90
53534;DHT22;39421;53.204;6.568;2022-09-12T15:32:24;23.90;99.90
53534;DHT22;39421;53.204;6.568;2022-09-12T15:34:50;23.80;99.90
53534;DHT22;39421;53.204;6.568;2022-09-12T15:37:18;23.80;99.90
53534;DHT22;39421;53.204;6.568;2022-09-12T15:39:45;23.90;99.90
53534;DHT22;39421;53.204;6.568;2022-09-12T15:42:15;23.90;99.90
53534;DHT22;39421;53.204;6.568;2022-09-12T15:44:41;23.80;99.90
53534;DHT22;39421;53.204;6.568;2022-09-12T15:47:11;23.80;99.90
53534;DHT22;39421;53.204;6.568;2022-09-12T15:49:38;23.70;99.90
53534;DHT22;39421;53.204;6.568;2022-09-12T15:52:04;23.70;99.90
53534;DHT22;39421;53.204;6.568;2022-09-12T15:54:29;23.70;99.90
53534;DHT22;39421;53.204;6.568;2022-09-12T15:56:55;23.70;99.90
53534;DHT22;39421;53.204;6.568;2022-09-12T15:59:20;23.80;99.90
53534;DHT22;39421;53.204;6.568;2022-09-12T16:01:49;23.70;99.90
53534;DHT22;39421;53.204;6.568;2022-09-12T16:04:22;23.80;99.90
53534;DHT22;39421;53.204;6.568;2022-09-12T16:06:49;23.80;99.90
53534;DHT22;39421;53.204;6.568;2022-09-12T16:09:17;23.80;99.90
53534;DHT22;39421;53.204;6.568;2022-09-12T16:11:43;23.80;99.90
53534;DHT22;39421;53.204;6.568;2022-09-12T16:14:18;23.80;99.90
53534;DHT22;39421;53.204;6.568;2022-09-12T16:16:51;23.70;99.90
53534;DHT22;39421;53.204;6.568;2022-09-12T16:19:18;23.70;99.90
53534;DHT22;39421;53.204;6.568;2022-09-12T16:21:43;23.60;99.90
53534;DHT22;39421;53.204;6.568;2022-09-12T16:24:09;23.60;99.90
53534;DHT22;39421;53.204;6.568;2022-09-12T16:26:35;23.60;99.90
53534;DHT22;39421;53.204;6.568;2022-09-12T16:29:01;23.50;99.90
53534;DHT22;39421;53.204;6.568;2022-09-12T16:31:27;23.50;99.90
53534;DHT22;39421;53.204;6.568;2022-09-12T16:33:53;23.40;99.90
53534;DHT22;39421;53.204;6.568;2022-09-12T16:36:20;23.40;99.90
53534;DHT22;39421;53.204;6.568;2022-09-12T16:38:52;23.40;99.90
53534;DHT22;39421;53.204;6.568;2022-09-12T16:41:21;23.40;99.90
53534;DHT22;39421;53.204;6.568;2022-09-12T16:43:49;23.30;99.90
53534;DHT22;39421;53.204;6.568;2022-09-12T16:46:20;23.40;99.90
53534;DHT22;39421;53.204;6.568;2022-09-12T16:48:48;23.40;99.90
53534;DHT22;39421;53.204;6.568;2022-09-12T16:51:16;23.30;99.90
53534;DHT22;39421;53.204;6.568;2022-09-12T16:53:42;23.30;99.90
53534;DHT22;39421;53.204;6.568;2022-09-12T16:56:08;23.20;99.90
53534;DHT22;39421;53.204;6.568;2022-09-12T16:58:36;23.20;99.90
53534;DHT22;39421;53.204;6.568;2022-09-12T17:03:29;23.20;99.90
53534;DHT22;39421;53.204;6.568;2022-09-12T17:06:06;23.20;99.90
53534;DHT22;39421;53.204;6.568;2022-09-12T17:08:36;23.20;99.90
53534;DHT22;39421;53.204;6.568;2022-09-12T17:11:13;23.20;99.90
53534;DHT22;39421;53.204;6.568;2022-09-12T17:13:40;23.20;99.90
53534;DHT22;39421;53.204;6.568;2022-09-12T17:16:11;23.20;99.90
53534;DHT22;39421;53.204;6.568;2022-09-12T17:18:37;23.10;99.90
53534;DHT22;39421;53.204;6.568;2022-09-12T17:21:04;23.10;99.90
53534;DHT22;39421;53.204;6.568;2022-09-12T17:23:30;23.10;99.90
53534;DHT22;39421;53.204;6.568;2022-09-12T17:25:56;23.00;99.90
53534;DHT22;39421;53.204;6.568;2022-09-12T17:28:22;23.00;99.90
53534;DHT22;39421;53.204;6.568;2022-09-12T17:31:03;22.90;99.90
53534;DHT22;39421;53.204;6.568;2022-09-12T17:33:29;22.90;99.90
53534;DHT22;39421;53.204;6.568;2022-09-12T17:36:00;22.90;99.90
53534;DHT22;39421;53.204;6.568;2022-09-12T17:38:27;22.80;99.90
53534;DHT22;39421;53.204;6.568;2022-09-12T17:40:53;22.80;99.90
53534;DHT22;39421;53.204;6.568;2022-09-12T17:43:18;22.80;99.90
53534;DHT22;39421;53.204;6.568;2022-09-12T17:45:44;22.70;99.90
53534;DHT22;39421;53.204;6.568;2022-09-12T17:48:10;22.60;99.90
53534;DHT22;39421;53.204;6.568;2022-09-12T17:50:37;22.60;99.90
53534;DHT22;39421;53.204;6.568;2022-09-12T17:53:05;22.60;99.90
53534;DHT22;39421;53.204;6.568;2022-09-12T17:55:34;22.50;99.90
53534;DHT22;39421;53.204;6.568;2022-09-12T17:58:01;22.50;99.90
53534;DHT22;39421;53.204;6.568;2022-09-12T18:00:27;22.50;99.90
53534;DHT22;39421;53.204;6.568;2022-09-12T18:03:13;22.40;99.90
53534;DHT22;39421;53.204;6.568;2022-09-12T18:05:51;22.40;99.90
53534;DHT22;39421;53.204;6.568;2022-09-12T18:08:17;22.40;99.90
53534;DHT22;39421;53.204;6.568;2022-09-12T18:10:44;22.30;99.90
53534;DHT22;39421;53.204;6.568;2022-09-12T18:13:10;22.40;99.90
53534;DHT22;39421;53.204;6.568;2022-09-12T18:15:36;22.30;99.90
53534;DHT22;39421;53.204;6.568;2022-09-12T18:18:03;22.30;99.90
53534;DHT22;39421;53.204;6.568;2022-09-12T18:20:29;22.30;99.90
53534;DHT22;39421;53.204;6.568;2022-09-12T18:22:55;22.30;99.90
53534;DHT22;39421;53.204;6.568;2022-09-12T18:25:20;22.40;99.90
53534;DHT22;39421;53.204;6.568;2022-09-12T18:27:46;22.30;99.90
53534;DHT22;39421;53.204;6.568;2022-09-12T18:30:12;22.30;99.90
53534;DHT22;39421;53.204;6.568;2022-09-12T18:32:38;22.30;99.90
53534;DHT22;39421;53.204;6.568;2022-09-12T18:35:05;22.30;99.90
53534;DHT22;39421;53.204;6.568;2022-09-12T18:37:31;22.30;99.90
53534;DHT22;39421;53.204;6.568;2022-09-12T18:39:57;22.20;99.90
53534;DHT22;39421;53.204;6.568;2022-09-12T18:42:26;22.10;99.90
53534;DHT22;39421;53.204;6.568;2022-09-12T18:44:51;22.00;99.90
53534;DHT22;39421;53.204;6.568;2022-09-12T18:47:17;22.00;99.90
53534;DHT22;39421;53.204;6.568;2022-09-12T18:49:43;22.00;99.90